createdAt,value
2018-02-10T00:01:41.256Z,63.20
2018-02-10T00:04:12.319Z,64.27
2018-02-10T00:06:43.385Z,68.63
2018-02-10T00:09:14.439Z,68.83
2018-02-10T00:11:45.511Z,65.20
2018-02-10T00:14:16.748Z,65.13
2018-02-10T00:16:47.818Z,64.97
2018-02-10T00:19:18.934Z,64.73
2018-02-10T00:21:49.962Z,72.27
2018-02-10T00:24:21.010Z,70.63
2018-02-10T00:26:52.046Z,62.57
2018-02-10T00:29:23.109Z,69.90
2018-02-10T00:31:54.157Z,66.10
2018-02-10T00:34:25.242Z,62.53
2018-02-10T00:36:56.330Z,73.67
2018-02-10T00:39:27.386Z,68.47
2018-02-10T00:41:58.449Z,67.80
2018-02-10T00:44:29.519Z,59.20
2018-02-10T00:47:00.603Z,65.47
2018-02-10T00:49:31.639Z,67.47
2018-02-10T00:52:02.724Z,71.50
2018-02-10T00:54:33.769Z,66.67
2018-02-10T00:57:04.810Z,70.30
2018-02-10T00:59:35.886Z,65.73
2018-02-10T01:02:06.989Z,61.70
2018-02-10T01:04:38.088Z,68.23
2018-02-10T01:07:09.167Z,67.10
2018-02-10T01:09:40.224Z,69.20
2018-02-10T01:12:11.259Z,63.97
2018-02-10T01:14:42.391Z,66.10
2018-02-10T01:17:13.436Z,62.50
2018-02-10T01:19:44.538Z,62.03
2018-02-10T01:22:15.545Z,62.87
2018-02-10T01:24:46.614Z,64.93
2018-02-10T01:27:17.689Z,64.70
2018-02-10T01:29:48.722Z,67.90
2018-02-10T01:32:19.753Z,68.90
2018-02-10T01:34:50.806Z,67.17
2018-02-10T01:37:21.895Z,68.03
2018-02-10T01:39:52.946Z,65.00
2018-02-10T01:42:24.056Z,70.33
2018-02-10T01:44:55.118Z,69.27
2018-02-10T01:47:26.206Z,64.53
2018-02-10T01:50:09.714Z,67.07
2018-02-10T01:52:40.751Z,69.57
2018-02-10T01:55:11.821Z,68.30
2018-02-10T01:57:42.912Z,65.60
2018-02-10T02:00:13.973Z,64.57
2018-02-10T02:02:45.040Z,62.97
2018-02-10T02:05:16.184Z,68.70
2018-02-10T02:07:47.290Z,65.97
2018-02-10T02:10:18.359Z,75.40
2018-02-10T02:12:49.402Z,75.97
2018-02-10T02:15:20.458Z,70.33
2018-02-10T02:17:51.498Z,70.83
2018-02-10T02:20:22.899Z,69.27
2018-02-10T02:22:53.945Z,73.00
2018-02-10T02:25:25.059Z,68.13
2018-02-10T02:27:56.100Z,68.20
2018-02-10T02:30:27.193Z,71.87
2018-02-10T02:32:58.266Z,65.53
2018-02-10T02:35:29.292Z,65.90
2018-02-10T02:38:00.378Z,69.80
2018-02-10T02:40:31.426Z,68.87
2018-02-10T02:43:02.518Z,65.70
2018-02-10T02:45:33.565Z,69.30
2018-02-10T02:48:04.640Z,65.37
2018-02-10T02:50:35.669Z,68.43
2018-02-10T02:53:06.761Z,67.40
2018-02-10T02:55:37.856Z,62.67
2018-02-10T02:58:08.927Z,64.23
2018-02-10T03:00:39.974Z,70.90
2018-02-10T03:03:10.998Z,70.03
2018-02-10T03:05:42.100Z,66.90
2018-02-10T03:08:13.173Z,66.60
2018-02-10T03:10:44.215Z,68.27
2018-02-10T03:13:15.267Z,71.50
2018-02-10T03:15:46.523Z,70.63
2018-02-10T03:18:17.570Z,69.23
2018-02-10T03:20:48.690Z,70.67
2018-02-10T03:23:19.953Z,65.23
2018-02-10T03:25:51.061Z,69.60
2018-02-10T03:28:22.125Z,60.00
2018-02-10T03:30:53.202Z,66.07
2018-02-10T03:33:24.251Z,73.03
2018-02-10T03:35:55.323Z,66.27
2018-02-10T03:38:26.377Z,74.63
2018-02-10T03:40:57.422Z,72.27
2018-02-10T03:43:28.516Z,67.70
2018-02-10T03:45:59.597Z,74.83
2018-02-10T03:48:30.615Z,70.43
2018-02-10T03:51:01.691Z,68.10
2018-02-10T03:53:32.778Z,76.97
2018-02-10T03:56:03.830Z,68.60
2018-02-10T03:58:34.876Z,73.47
2018-02-10T04:01:05.931Z,70.97
2018-02-10T04:03:36.977Z,70.30
2018-02-10T04:06:08.105Z,70.53
2018-02-10T04:08:39.181Z,66.97
2018-02-10T04:11:10.279Z,70.03
2018-02-10T04:13:41.346Z,69.27
2018-02-10T04:16:12.435Z,75.23
2018-02-10T04:18:43.528Z,71.53
2018-02-10T04:21:14.578Z,68.00
2018-02-10T04:23:45.645Z,71.53
2018-02-10T04:26:16.701Z,78.93
2018-02-10T04:28:47.769Z,73.07
2018-02-10T04:31:18.822Z,71.73
2018-02-10T04:33:49.879Z,69.87
2018-02-10T04:36:20.946Z,71.10
2018-02-10T04:38:51.994Z,69.62
2018-02-10T04:41:23.211Z,74.18
2018-02-10T04:43:54.361Z,67.57
2018-02-10T04:46:25.401Z,73.70
2018-02-10T04:48:56.485Z,65.03
2018-02-10T04:51:27.563Z,69.27
2018-02-10T04:53:58.633Z,72.53
2018-02-10T04:56:29.715Z,70.77
2018-02-10T04:59:00.794Z,71.63
2018-02-10T05:01:31.841Z,73.57
2018-02-10T05:04:02.910Z,70.10
2018-02-10T05:06:33.999Z,70.47
2018-02-10T05:09:05.075Z,71.77
2018-02-10T05:11:36.145Z,67.97
2018-02-10T05:14:07.191Z,70.40
2018-02-10T05:16:39.204Z,66.50
2018-02-10T05:19:10.278Z,69.90
2018-02-10T05:21:41.362Z,69.47
2018-02-10T05:24:12.411Z,67.10
2018-02-10T05:26:43.493Z,72.53
2018-02-10T05:29:14.518Z,72.47
2018-02-10T05:31:45.592Z,68.60
2018-02-10T05:34:16.705Z,71.03
2018-02-10T05:36:47.772Z,70.73
2018-02-10T05:39:18.869Z,63.00
2018-02-10T05:41:49.929Z,66.83
2018-02-10T05:44:20.995Z,65.20
2018-02-10T05:46:52.095Z,70.00
2018-02-10T05:49:23.149Z,64.13
2018-02-10T05:51:54.259Z,70.03
2018-02-10T05:54:25.308Z,63.17
2018-02-10T05:56:56.353Z,66.77
2018-02-10T05:59:27.462Z,67.43
2018-02-10T06:01:58.514Z,72.10
2018-02-10T06:04:29.588Z,68.53
2018-02-10T06:07:00.689Z,67.43
2018-02-10T06:09:31.799Z,63.40
2018-02-10T06:12:02.855Z,69.53
2018-02-10T06:14:33.940Z,65.13
2018-02-10T06:17:04.999Z,70.32
2018-02-10T06:19:36.123Z,66.70
2018-02-10T06:22:07.198Z,57.60
2018-02-10T06:24:38.305Z,65.70
2018-02-10T06:27:09.368Z,61.67
2018-02-10T06:29:40.489Z,66.43
2018-02-10T06:32:11.541Z,72.13
2018-02-10T06:34:42.606Z,65.87
2018-02-10T06:37:13.638Z,62.77
2018-02-10T06:39:44.710Z,67.07
2018-02-10T06:42:15.753Z,61.80
2018-02-10T06:44:46.798Z,67.57
2018-02-10T06:47:17.999Z,68.53
2018-02-10T06:49:49.084Z,62.43
2018-02-10T06:52:20.140Z,62.87
2018-02-10T06:54:51.184Z,61.23
2018-02-10T06:57:23.006Z,62.03
2018-02-10T06:59:54.070Z,63.63
2018-02-10T07:02:25.150Z,62.93
2018-02-10T07:04:56.204Z,62.10
2018-02-10T07:07:27.334Z,57.40
2018-02-10T07:09:58.360Z,63.10
2018-02-10T07:12:29.418Z,58.47
2018-02-10T07:15:00.501Z,62.07
2018-02-10T07:17:31.522Z,53.77
2018-02-10T07:20:02.842Z,59.97
2018-02-10T07:22:34.381Z,64.17
2018-02-10T07:25:05.482Z,68.67
2018-02-10T07:27:36.525Z,60.27
2018-02-10T07:30:07.665Z,55.97
2018-02-10T07:32:38.683Z,58.33
2018-02-10T07:35:09.759Z,55.87
2018-02-10T07:37:40.805Z,58.13
2018-02-10T07:40:11.866Z,59.07
2018-02-10T07:42:42.953Z,58.83
2018-02-10T07:45:14.027Z,59.73
2018-02-10T07:47:45.096Z,59.73
2018-02-10T07:50:16.228Z,57.57
2018-02-10T07:52:47.251Z,52.13
2018-02-10T07:55:18.311Z,58.07
2018-02-10T07:57:49.389Z,56.20
2018-02-10T08:00:20.438Z,50.93
2018-02-10T08:02:51.510Z,51.33
2018-02-10T08:05:22.596Z,55.03
2018-02-10T08:07:53.663Z,50.50
2018-02-10T08:10:24.763Z,55.20
2018-02-10T08:12:55.817Z,54.53
2018-02-10T08:15:26.836Z,55.73
2018-02-10T08:17:57.886Z,50.60
2018-02-10T08:20:28.936Z,53.63
2018-02-10T08:22:59.995Z,51.30
2018-02-10T08:25:31.042Z,58.07
2018-02-10T08:28:02.114Z,52.70
2018-02-10T08:30:33.190Z,54.77
2018-02-10T08:33:04.279Z,50.80
2018-02-10T08:35:35.336Z,52.03
2018-02-10T08:38:07.245Z,56.90
2018-02-10T08:40:38.323Z,54.17
2018-02-10T08:43:09.434Z,54.47
2018-02-10T08:45:40.486Z,52.23
2018-02-10T08:48:11.513Z,52.37
2018-02-10T08:50:42.626Z,52.67
2018-02-10T08:53:13.753Z,52.20
2018-02-10T08:55:44.861Z,58.87
2018-02-10T08:58:15.894Z,58.33
2018-02-10T09:00:46.981Z,56.60
2018-02-10T09:03:18.025Z,50.90
2018-02-10T09:05:49.079Z,52.53
2018-02-10T09:08:20.165Z,53.70
2018-02-10T09:10:51.243Z,55.60
2018-02-10T09:13:22.283Z,58.43
2018-02-10T09:15:53.305Z,54.53
2018-02-10T09:18:24.357Z,53.20
2018-02-10T09:20:55.545Z,56.80
2018-02-10T09:23:26.797Z,53.27
2018-02-10T09:25:58.173Z,55.67
2018-02-10T09:28:29.275Z,47.93
2018-02-10T09:31:00.300Z,50.13
2018-02-10T09:33:31.447Z,55.67
2018-02-10T09:36:02.510Z,58.53
2018-02-10T09:38:33.613Z,49.83
2018-02-10T09:41:05.045Z,56.50
2018-02-10T09:43:36.131Z,54.17
2018-02-10T09:46:07.264Z,55.43
